sensor_id;sensor_type;location;lat;lon;timestamp;P1;durP1;ratioP1;P2;durP2;ratioP2
7737;SDS011;29398;45.328;5.558;2022-12-10T00:00:34;35.50;;;26.27;;
7737;SDS011;29398;45.328;5.558;2022-12-10T00:01:36;33.03;;;25.17;;
7737;SDS011;29398;45.328;5.558;2022-12-10T00:02:37;33.55;;;26.15;;
7737;SDS011;29398;45.328;5.558;2022-12-10T00:03:39;32.80;;;23.98;;
7737;SDS011;29398;45.328;5.558;2022-12-10T00:04:41;34.20;;;20.27;;
7737;SDS011;29398;45.328;5.558;2022-12-10T00:05:44;34.50;;;26.50;;
7737;SDS011;29398;45.328;5.558;2022-12-10T00:06:46;32.58;;;24.77;;
7737;SDS011;29398;45.328;5.558;2022-12-10T00:07:48;32.42;;;24.00;;
7737;SDS011;29398;45.328;5.558;2022-12-10T00:08:49;33.63;;;25.08;;
7737;SDS011;29398;45.328;5.558;2022-12-10T00:09:52;35.92;;;25.70;;
7737;SDS011;29398;45.328;5.558;2022-12-10T00:10:53;36.90;;;27.42;;
7737;SDS011;29398;45.328;5.558;2022-12-10T00:11:55;34.15;;;26.25;;
7737;SDS011;29398;45.328;5.558;2022-12-10T00:12:57;32.97;;;24.75;;
7737;SDS011;29398;45.328;5.558;2022-12-10T00:13:59;34.42;;;25.10;;
7737;SDS011;29398;45.328;5.558;2022-12-10T00:15:01;37.25;;;27.00;;
7737;SDS011;29398;45.328;5.558;2022-12-10T00:16:03;35.92;;;26.38;;
7737;SDS011;29398;45.328;5.558;2022-12-10T00:17:07;35.20;;;26.20;;
7737;SDS011;29398;45.328;5.558;2022-12-10T00:18:08;36.88;;;25.98;;
7737;SDS011;29398;45.328;5.558;2022-12-10T00:19:10;36.60;;;26.30;;
7737;SDS011;29398;45.328;5.558;2022-12-10T00:20:12;37.88;;;26.33;;
7737;SDS011;29398;45.328;5.558;2022-12-10T00:21:16;38.53;;;27.20;;
7737;SDS011;29398;45.328;5.558;2022-12-10T00:22:19;36.95;;;27.15;;
7737;SDS011;29398;45.328;5.558;2022-12-10T00:23:21;42.60;;;30.55;;
7737;SDS011;29398;45.328;5.558;2022-12-10T00:24:22;39.63;;;27.60;;
7737;SDS011;29398;45.328;5.558;2022-12-10T00:25:24;43.20;;;23.08;;
7737;SDS011;29398;45.328;5.558;2022-12-10T00:26:27;54.58;;;39.50;;
7737;SDS011;29398;45.328;5.558;2022-12-10T00:27:30;46.80;;;35.35;;
7737;SDS011;29398;45.328;5.558;2022-12-10T00:28:31;44.50;;;32.30;;
7737;SDS011;29398;45.328;5.558;2022-12-10T00:29:34;40.75;;;30.55;;
7737;SDS011;29398;45.328;5.558;2022-12-10T00:30:35;49.80;;;35.53;;
7737;SDS011;29398;45.328;5.558;2022-12-10T00:31:37;43.78;;;32.22;;
7737;SDS011;29398;45.328;5.558;2022-12-10T00:32:39;52.85;;;39.30;;
7737;SDS011;29398;45.328;5.558;2022-12-10T00:33:41;66.78;;;58.40;;
7737;SDS011;29398;45.328;5.558;2022-12-10T00:34:44;43.80;;;37.10;;
7737;SDS011;29398;45.328;5.558;2022-12-10T00:35:46;48.00;;;37.65;;
7737;SDS011;29398;45.328;5.558;2022-12-10T00:36:48;48.20;;;40.10;;
7737;SDS011;29398;45.328;5.558;2022-12-10T00:37:51;51.75;;;41.83;;
7737;SDS011;29398;45.328;5.558;2022-12-10T00:38:52;54.15;;;34.92;;
7737;SDS011;29398;45.328;5.558;2022-12-10T00:39:54;57.28;;;34.35;;
7737;SDS011;29398;45.328;5.558;2022-12-10T00:40:55;46.08;;;33.92;;
7737;SDS011;29398;45.328;5.558;2022-12-10T00:41:57;45.50;;;32.35;;
7737;SDS011;29398;45.328;5.558;2022-12-10T00:43:00;42.45;;;29.90;;
7737;SDS011;29398;45.328;5.558;2022-12-10T00:44:01;42.47;;;30.50;;
7737;SDS011;29398;45.328;5.558;2022-12-10T00:45:03;62.30;;;47.40;;
7737;SDS011;29398;45.328;5.558;2022-12-10T00:46:05;55.50;;;44.03;;
7737;SDS011;29398;45.328;5.558;2022-12-10T00:47:07;62.30;;;40.75;;
7737;SDS011;29398;45.328;5.558;2022-12-10T00:48:09;84.15;;;75.20;;
7737;SDS011;29398;45.328;5.558;2022-12-10T00:49:10;60.17;;;49.08;;
7737;SDS011;29398;45.328;5.558;2022-12-10T00:50:13;55.58;;;43.25;;
7737;SDS011;29398;45.328;5.558;2022-12-10T00:51:14;46.22;;;35.67;;
7737;SDS011;29398;45.328;5.558;2022-12-10T00:52:19;64.55;;;51.40;;
7737;SDS011;29398;45.328;5.558;2022-12-10T00:53:20;44.20;;;35.45;;
7737;SDS011;29398;45.328;5.558;2022-12-10T00:54:23;52.70;;;30.83;;
7737;SDS011;29398;45.328;5.558;2022-12-10T00:55:25;67.90;;;55.15;;
7737;SDS011;29398;45.328;5.558;2022-12-10T00:56:27;50.72;;;39.72;;
7737;SDS011;29398;45.328;5.558;2022-12-10T00:57:30;59.13;;;45.08;;
7737;SDS011;29398;45.328;5.558;2022-12-10T00:58:32;62.00;;;44.50;;
7737;SDS011;29398;45.328;5.558;2022-12-10T00:59:35;53.92;;;36.03;;
7737;SDS011;29398;45.328;5.558;2022-12-10T01:00:36;43.95;;;31.95;;
7737;SDS011;29398;45.328;5.558;2022-12-10T01:01:40;42.17;;;30.15;;
7737;SDS011;29398;45.328;5.558;2022-12-10T01:02:42;51.42;;;32.38;;
7737;SDS011;29398;45.328;5.558;2022-12-10T01:03:44;50.13;;;33.65;;
7737;SDS011;29398;45.328;5.558;2022-12-10T01:04:45;46.33;;;26.30;;
7737;SDS011;29398;45.328;5.558;2022-12-10T01:05:48;52.20;;;35.97;;
7737;SDS011;29398;45.328;5.558;2022-12-10T01:06:49;48.58;;;36.25;;
7737;SDS011;29398;45.328;5.558;2022-12-10T01:07:54;47.33;;;26.45;;
7737;SDS011;29398;45.328;5.558;2022-12-10T01:08:56;62.30;;;49.47;;
7737;SDS011;29398;45.328;5.558;2022-12-10T01:09:59;62.35;;;38.45;;
7737;SDS011;29398;45.328;5.558;2022-12-10T01:11:01;49.83;;;37.42;;
7737;SDS011;29398;45.328;5.558;2022-12-10T01:12:03;53.70;;;40.85;;
7737;SDS011;29398;45.328;5.558;2022-12-10T01:13:05;51.55;;;33.83;;
7737;SDS011;29398;45.328;5.558;2022-12-10T01:14:07;47.92;;;33.35;;
7737;SDS011;29398;45.328;5.558;2022-12-10T01:15:10;64.45;;;34.65;;
7737;SDS011;29398;45.328;5.558;2022-12-10T01:16:13;47.95;;;34.35;;
7737;SDS011;29398;45.328;5.558;2022-12-10T01:17:17;47.97;;;34.63;;
7737;SDS011;29398;45.328;5.558;2022-12-10T01:18:21;51.88;;;34.97;;
7737;SDS011;29398;45.328;5.558;2022-12-10T01:19:22;47.00;;;31.60;;
7737;SDS011;29398;45.328;5.558;2022-12-10T01:20:24;53.20;;;34.33;;
7737;SDS011;29398;45.328;5.558;2022-12-10T01:21:26;46.65;;;33.20;;
7737;SDS011;29398;45.328;5.558;2022-12-10T01:22:30;40.78;;;30.70;;
7737;SDS011;29398;45.328;5.558;2022-12-10T01:23:33;43.78;;;30.05;;
7737;SDS011;29398;45.328;5.558;2022-12-10T01:24:38;41.47;;;23.33;;
7737;SDS011;29398;45.328;5.558;2022-12-10T01:25:39;36.15;;;26.27;;
7737;SDS011;29398;45.328;5.558;2022-12-10T01:26:41;40.13;;;29.55;;
7737;SDS011;29398;45.328;5.558;2022-12-10T01:27:42;32.25;;;25.05;;
7737;SDS011;29398;45.328;5.558;2022-12-10T01:28:45;32.88;;;20.13;;
7737;SDS011;29398;45.328;5.558;2022-12-10T01:29:47;27.67;;;21.60;;
7737;SDS011;29398;45.328;5.558;2022-12-10T01:30:49;28.85;;;21.60;;
7737;SDS011;29398;45.328;5.558;2022-12-10T01:31:51;23.90;;;19.38;;
7737;SDS011;29398;45.328;5.558;2022-12-10T01:32:54;23.45;;;19.20;;
7737;SDS011;29398;45.328;5.558;2022-12-10T01:33:56;24.80;;;19.65;;
7737;SDS011;29398;45.328;5.558;2022-12-10T01:35:00;24.17;;;18.73;;
7737;SDS011;29398;45.328;5.558;2022-12-10T01:36:01;23.00;;;19.00;;
7737;SDS011;29398;45.328;5.558;2022-12-10T01:37:04;24.08;;;19.38;;
7737;SDS011;29398;45.328;5.558;2022-12-10T01:38:06;22.23;;;17.58;;
7737;SDS011;29398;45.328;5.558;2022-12-10T01:39:11;25.83;;;15.25;;
7737;SDS011;29398;45.328;5.558;2022-12-10T01:40:14;22.48;;;17.75;;
7737;SDS011;29398;45.328;5.558;2022-12-10T01:41:20;20.70;;;14.18;;
7737;SDS011;29398;45.328;5.558;2022-12-10T01:42:23;21.30;;;14.75;;
7737;SDS011;29398;45.328;5.558;2022-12-10T01:43:25;21.42;;;15.27;;
7737;SDS011;29398;45.328;5.558;2022-12-10T01:46:07;20.73;;;14.52;;
7737;SDS011;29398;45.328;5.558;2022-12-10T01:47:09;23.80;;;15.90;;
7737;SDS011;29398;45.328;5.558;2022-12-10T01:48:11;24.17;;;17.15;;
7737;SDS011;29398;45.328;5.558;2022-12-10T01:49:14;24.92;;;17.80;;
7737;SDS011;29398;45.328;5.558;2022-12-10T01:50:18;27.27;;;19.30;;
7737;SDS011;29398;45.328;5.558;2022-12-10T01:51:20;29.85;;;19.90;;
7737;SDS011;29398;45.328;5.558;2022-12-10T01:52:22;31.02;;;19.98;;
7737;SDS011;29398;45.328;5.558;2022-12-10T01:53:24;29.58;;;19.98;;
7737;SDS011;29398;45.328;5.558;2022-12-10T01:54:28;30.52;;;19.73;;
7737;SDS011;29398;45.328;5.558;2022-12-10T01:55:37;37.55;;;19.98;;
7737;SDS011;29398;45.328;5.558;2022-12-10T01:56:41;34.10;;;21.65;;
7737;SDS011;29398;45.328;5.558;2022-12-10T01:57:46;35.08;;;22.08;;
7737;SDS011;29398;45.328;5.558;2022-12-10T01:58:47;47.13;;;21.55;;
7737;SDS011;29398;45.328;5.558;2022-12-10T01:59:51;39.08;;;22.55;;
7737;SDS011;29398;45.328;5.558;2022-12-10T02:00:58;36.10;;;21.45;;
7737;SDS011;29398;45.328;5.558;2022-12-10T02:02:08;30.65;;;20.27;;
7737;SDS011;29398;45.328;5.558;2022-12-10T02:03:18;35.67;;;22.80;;
7737;SDS011;29398;45.328;5.558;2022-12-10T02:04:28;35.58;;;21.05;;
7737;SDS011;29398;45.328;5.558;2022-12-10T02:05:36;42.55;;;22.50;;
7737;SDS011;29398;45.328;5.558;2022-12-10T02:06:44;34.17;;;21.80;;
7737;SDS011;29398;45.328;5.558;2022-12-10T02:08:02;48.33;;;22.10;;
7737;SDS011;29398;45.328;5.558;2022-12-10T02:09:11;35.80;;;22.45;;
7737;SDS011;29398;45.328;5.558;2022-12-10T02:10:26;45.03;;;22.88;;
7737;SDS011;29398;45.328;5.558;2022-12-10T02:11:37;36.38;;;21.75;;
7737;SDS011;29398;45.328;5.558;2022-12-10T02:12:48;35.90;;;22.58;;
7737;SDS011;29398;45.328;5.558;2022-12-10T02:13:55;38.30;;;21.95;;
7737;SDS011;29398;45.328;5.558;2022-12-10T02:15:02;36.85;;;22.42;;
7737;SDS011;29398;45.328;5.558;2022-12-10T02:16:12;39.05;;;23.60;;
7737;SDS011;29398;45.328;5.558;2022-12-10T02:17:17;36.45;;;22.38;;
7737;SDS011;29398;45.328;5.558;2022-12-10T02:18:27;33.42;;;21.70;;
7737;SDS011;29398;45.328;5.558;2022-12-10T02:19:37;33.00;;;20.92;;
7737;SDS011;29398;45.328;5.558;2022-12-10T02:20:47;36.63;;;22.65;;
7737;SDS011;29398;45.328;5.558;2022-12-10T02:21:53;37.70;;;21.65;;
7737;SDS011;29398;45.328;5.558;2022-12-10T02:22:58;47.30;;;23.30;;
7737;SDS011;29398;45.328;5.558;2022-12-10T02:24:04;39.25;;;23.08;;
7737;SDS011;29398;45.328;5.558;2022-12-10T02:25:11;41.28;;;23.90;;
7737;SDS011;29398;45.328;5.558;2022-12-10T02:26:19;42.38;;;24.67;;
7737;SDS011;29398;45.328;5.558;2022-12-10T02:27:25;35.13;;;18.15;;
7737;SDS011;29398;45.328;5.558;2022-12-10T02:28:34;52.15;;;23.80;;
7737;SDS011;29398;45.328;5.558;2022-12-10T02:29:43;51.28;;;23.55;;
7737;SDS011;29398;45.328;5.558;2022-12-10T02:30:49;43.90;;;24.95;;
7737;SDS011;29398;45.328;5.558;2022-12-10T02:31:52;42.38;;;24.25;;
7737;SDS011;29398;45.328;5.558;2022-12-10T02:32:57;57.42;;;24.90;;
7737;SDS011;29398;45.328;5.558;2022-12-10T02:34:01;63.72;;;26.83;;
7737;SDS011;29398;45.328;5.558;2022-12-10T02:35:09;42.72;;;26.55;;
7737;SDS011;29398;45.328;5.558;2022-12-10T02:36:13;47.63;;;26.92;;
7737;SDS011;29398;45.328;5.558;2022-12-10T02:37:17;57.30;;;25.00;;
7737;SDS011;29398;45.328;5.558;2022-12-10T02:38:27;61.40;;;27.33;;
7737;SDS011;29398;45.328;5.558;2022-12-10T02:39:34;53.10;;;28.35;;
7737;SDS011;29398;45.328;5.558;2022-12-10T02:40:39;61.17;;;26.75;;
7737;SDS011;29398;45.328;5.558;2022-12-10T02:41:47;51.88;;;27.75;;
7737;SDS011;29398;45.328;5.558;2022-12-10T02:42:52;70.70;;;28.95;;
7737;SDS011;29398;45.328;5.558;2022-12-10T02:43:56;50.58;;;27.42;;
7737;SDS011;29398;45.328;5.558;2022-12-10T02:45:00;57.33;;;29.05;;
7737;SDS011;29398;45.328;5.558;2022-12-10T02:46:05;51.55;;;27.77;;
7737;SDS011;29398;45.328;5.558;2022-12-10T02:47:07;62.85;;;27.85;;
7737;SDS011;29398;45.328;5.558;2022-12-10T02:48:14;63.22;;;27.92;;
7737;SDS011;29398;45.328;5.558;2022-12-10T02:49:17;57.45;;;29.45;;
7737;SDS011;29398;45.328;5.558;2022-12-10T02:50:19;57.22;;;30.67;;
7737;SDS011;29398;45.328;5.558;2022-12-10T02:51:23;48.35;;;28.00;;
7737;SDS011;29398;45.328;5.558;2022-12-10T02:52:26;56.00;;;30.35;;
7737;SDS011;29398;45.328;5.558;2022-12-10T02:53:28;70.20;;;27.08;;
7737;SDS011;29398;45.328;5.558;2022-12-10T02:54:35;44.35;;;26.17;;
7737;SDS011;29398;45.328;5.558;2022-12-10T02:55:42;54.65;;;25.92;;
7737;SDS011;29398;45.328;5.558;2022-12-10T02:56:57;55.90;;;24.70;;
7737;SDS011;29398;45.328;5.558;2022-12-10T02:58:03;48.22;;;25.73;;
7737;SDS011;29398;45.328;5.558;2022-12-10T02:59:14;49.28;;;25.88;;
7737;SDS011;29398;45.328;5.558;2022-12-10T03:00:26;42.15;;;23.55;;
7737;SDS011;29398;45.328;5.558;2022-12-10T03:01:35;62.35;;;25.27;;
7737;SDS011;29398;45.328;5.558;2022-12-10T03:02:46;50.72;;;26.38;;
7737;SDS011;29398;45.328;5.558;2022-12-10T03:04:06;46.13;;;25.20;;
7737;SDS011;29398;45.328;5.558;2022-12-10T03:05:13;51.50;;;22.83;;
7737;SDS011;29398;45.328;5.558;2022-12-10T03:06:22;43.30;;;24.38;;
7737;SDS011;29398;45.328;5.558;2022-12-10T03:07:32;38.17;;;23.85;;
7737;SDS011;29398;45.328;5.558;2022-12-10T03:08:39;43.13;;;23.90;;
7737;SDS011;29398;45.328;5.558;2022-12-10T03:09:47;31.95;;;20.88;;
7737;SDS011;29398;45.328;5.558;2022-12-10T03:10:55;39.33;;;19.35;;
7737;SDS011;29398;45.328;5.558;2022-12-10T03:12:02;39.63;;;21.63;;
7737;SDS011;29398;45.328;5.558;2022-12-10T03:13:14;36.97;;;20.98;;
7737;SDS011;29398;45.328;5.558;2022-12-10T03:14:18;37.88;;;21.23;;
7737;SDS011;29398;45.328;5.558;2022-12-10T03:15:27;40.13;;;19.88;;
7737;SDS011;29398;45.328;5.558;2022-12-10T03:16:31;28.45;;;18.45;;
7737;SDS011;29398;45.328;5.558;2022-12-10T03:17:37;26.77;;;17.67;;
7737;SDS011;29398;45.328;5.558;2022-12-10T03:18:39;35.55;;;17.90;;
7737;SDS011;29398;45.328;5.558;2022-12-10T03:19:42;21.65;;;15.50;;
7737;SDS011;29398;45.328;5.558;2022-12-10T03:20:48;29.25;;;15.80;;
7737;SDS011;29398;45.328;5.558;2022-12-10T03:21:54;20.77;;;14.02;;
7737;SDS011;29398;45.328;5.558;2022-12-10T03:22:58;30.08;;;15.05;;
7737;SDS011;29398;45.328;5.558;2022-12-10T03:24:01;21.02;;;14.63;;
7737;SDS011;29398;45.328;5.558;2022-12-10T03:25:04;20.98;;;15.25;;
7737;SDS011;29398;45.328;5.558;2022-12-10T03:26:07;20.60;;;13.95;;
7737;SDS011;29398;45.328;5.558;2022-12-10T03:27:11;15.75;;;12.32;;
7737;SDS011;29398;45.328;5.558;2022-12-10T03:28:15;15.88;;;11.73;;
7737;SDS011;29398;45.328;5.558;2022-12-10T03:29:21;16.17;;;11.73;;
7737;SDS011;29398;45.328;5.558;2022-12-10T03:30:27;17.55;;;12.07;;
7737;SDS011;29398;45.328;5.558;2022-12-10T03:31:29;23.58;;;13.55;;
7737;SDS011;29398;45.328;5.558;2022-12-10T03:32:32;18.85;;;13.32;;
7737;SDS011;29398;45.328;5.558;2022-12-10T03:33:34;26.63;;;13.98;;
7737;SDS011;29398;45.328;5.558;2022-12-10T03:34:36;18.63;;;13.18;;
7737;SDS011;29398;45.328;5.558;2022-12-10T03:35:38;22.98;;;13.68;;
7737;SDS011;29398;45.328;5.558;2022-12-10T03:36:41;24.13;;;15.07;;
7737;SDS011;29398;45.328;5.558;2022-12-10T03:37:44;22.67;;;14.63;;
7737;SDS011;29398;45.328;5.558;2022-12-10T03:38:49;21.48;;;15.32;;
7737;SDS011;29398;45.328;5.558;2022-12-10T03:39:51;32.33;;;16.80;;
7737;SDS011;29398;45.328;5.558;2022-12-10T03:40:53;22.48;;;15.95;;
7737;SDS011;29398;45.328;5.558;2022-12-10T03:41:54;31.52;;;16.30;;
7737;SDS011;29398;45.328;5.558;2022-12-10T03:42:56;28.05;;;16.63;;
7737;SDS011;29398;45.328;5.558;2022-12-10T03:43:58;28.67;;;18.00;;
7737;SDS011;29398;45.328;5.558;2022-12-10T03:45:04;38.33;;;18.80;;
7737;SDS011;29398;45.328;5.558;2022-12-10T03:46:07;31.35;;;18.10;;
7737;SDS011;29398;45.328;5.558;2022-12-10T03:47:10;32.13;;;19.38;;
7737;SDS011;29398;45.328;5.558;2022-12-10T03:48:13;30.92;;;18.88;;
7737;SDS011;29398;45.328;5.558;2022-12-10T03:49:15;41.30;;;19.52;;
7737;SDS011;29398;45.328;5.558;2022-12-10T03:50:16;44.22;;;19.38;;
7737;SDS011;29398;45.328;5.558;2022-12-10T03:51:19;31.92;;;19.13;;
7737;SDS011;29398;45.328;5.558;2022-12-10T03:52:21;40.58;;;19.23;;
7737;SDS011;29398;45.328;5.558;2022-12-10T03:53:24;31.45;;;19.15;;
7737;SDS011;29398;45.328;5.558;2022-12-10T03:54:25;32.95;;;20.13;;
7737;SDS011;29398;45.328;5.558;2022-12-10T03:55:27;37.53;;;17.75;;
7737;SDS011;29398;45.328;5.558;2022-12-10T03:56:28;28.83;;;19.00;;
7737;SDS011;29398;45.328;5.558;2022-12-10T03:57:30;40.70;;;19.15;;
7737;SDS011;29398;45.328;5.558;2022-12-10T03:58:31;32.85;;;20.13;;
7737;SDS011;29398;45.328;5.558;2022-12-10T03:59:34;41.30;;;18.77;;
7737;SDS011;29398;45.328;5.558;2022-12-10T04:00:35;28.67;;;17.92;;
7737;SDS011;29398;45.328;5.558;2022-12-10T04:01:39;45.13;;;19.77;;
7737;SDS011;29398;45.328;5.558;2022-12-10T04:02:40;37.55;;;18.02;;
7737;SDS011;29398;45.328;5.558;2022-12-10T04:03:42;38.70;;;19.42;;
7737;SDS011;29398;45.328;5.558;2022-12-10T04:04:44;29.38;;;17.90;;
7737;SDS011;29398;45.328;5.558;2022-12-10T04:05:46;43.47;;;19.50;;
7737;SDS011;29398;45.328;5.558;2022-12-10T04:06:47;31.73;;;19.10;;
7737;SDS011;29398;45.328;5.558;2022-12-10T04:07:49;43.97;;;21.02;;
7737;SDS011;29398;45.328;5.558;2022-12-10T04:08:51;32.83;;;19.20;;
7737;SDS011;29398;45.328;5.558;2022-12-10T04:09:54;30.10;;;18.98;;
7737;SDS011;29398;45.328;5.558;2022-12-10T04:11:00;37.85;;;19.40;;
7737;SDS011;29398;45.328;5.558;2022-12-10T04:12:04;30.73;;;20.42;;
7737;SDS011;29398;45.328;5.558;2022-12-10T04:13:05;33.78;;;18.25;;
7737;SDS011;29398;45.328;5.558;2022-12-10T04:14:26;36.88;;;18.10;;
7737;SDS011;29398;45.328;5.558;2022-12-10T04:17:07;32.38;;;17.48;;
7737;SDS011;29398;45.328;5.558;2022-12-10T04:18:09;36.08;;;18.13;;
7737;SDS011;29398;45.328;5.558;2022-12-10T04:19:11;32.90;;;18.50;;
7737;SDS011;29398;45.328;5.558;2022-12-10T04:20:15;27.95;;;18.77;;
7737;SDS011;29398;45.328;5.558;2022-12-10T04:21:35;32.38;;;17.75;;
7737;SDS011;29398;45.328;5.558;2022-12-10T04:22:57;24.75;;;17.50;;
7737;SDS011;29398;45.328;5.558;2022-12-10T04:24:17;36.33;;;17.73;;
7737;SDS011;29398;45.328;5.558;2022-12-10T04:25:39;25.83;;;18.77;;
7737;SDS011;29398;45.328;5.558;2022-12-10T04:27:00;29.00;;;17.17;;
7737;SDS011;29398;45.328;5.558;2022-12-10T04:28:05;32.13;;;18.15;;
7737;SDS011;29398;45.328;5.558;2022-12-10T04:29:07;26.20;;;19.33;;
7737;SDS011;29398;45.328;5.558;2022-12-10T04:30:11;30.15;;;18.17;;
7737;SDS011;29398;45.328;5.558;2022-12-10T04:31:12;25.40;;;19.52;;
7737;SDS011;29398;45.328;5.558;2022-12-10T04:32:16;32.38;;;19.75;;
7737;SDS011;29398;45.328;5.558;2022-12-10T04:33:17;27.67;;;20.45;;
7737;SDS011;29398;45.328;5.558;2022-12-10T04:34:19;32.45;;;18.88;;
7737;SDS011;29398;45.328;5.558;2022-12-10T04:35:20;33.10;;;19.05;;
7737;SDS011;29398;45.328;5.558;2022-12-10T04:36:22;25.70;;;18.42;;
7737;SDS011;29398;45.328;5.558;2022-12-10T04:37:24;26.10;;;18.48;;
7737;SDS011;29398;45.328;5.558;2022-12-10T04:38:26;30.23;;;17.23;;
7737;SDS011;29398;45.328;5.558;2022-12-10T04:39:28;25.73;;;18.23;;
7737;SDS011;29398;45.328;5.558;2022-12-10T04:40:30;26.30;;;18.40;;
7737;SDS011;29398;45.328;5.558;2022-12-10T04:41:31;29.70;;;17.35;;
7737;SDS011;29398;45.328;5.558;2022-12-10T04:42:34;30.02;;;17.70;;
7737;SDS011;29398;45.328;5.558;2022-12-10T04:43:36;33.05;;;18.30;;
7737;SDS011;29398;45.328;5.558;2022-12-10T04:44:37;35.20;;;18.67;;
7737;SDS011;29398;45.328;5.558;2022-12-10T04:45:39;27.52;;;20.30;;
7737;SDS011;29398;45.328;5.558;2022-12-10T04:46:41;29.65;;;20.65;;
7737;SDS011;29398;45.328;5.558;2022-12-10T04:47:45;37.55;;;21.98;;
7737;SDS011;29398;45.328;5.558;2022-12-10T04:48:46;34.10;;;23.40;;
7737;SDS011;29398;45.328;5.558;2022-12-10T04:49:48;29.42;;;21.40;;
7737;SDS011;29398;45.328;5.558;2022-12-10T04:50:50;37.33;;;21.02;;
7737;SDS011;29398;45.328;5.558;2022-12-10T04:51:52;33.42;;;19.63;;
7737;SDS011;29398;45.328;5.558;2022-12-10T04:52:53;29.00;;;20.52;;
7737;SDS011;29398;45.328;5.558;2022-12-10T04:53:55;32.20;;;21.83;;
7737;SDS011;29398;45.328;5.558;2022-12-10T04:54:57;39.97;;;22.02;;
7737;SDS011;29398;45.328;5.558;2022-12-10T04:55:59;32.58;;;21.77;;
7737;SDS011;29398;45.328;5.558;2022-12-10T04:57:01;40.95;;;21.70;;
7737;SDS011;29398;45.328;5.558;2022-12-10T04:58:03;32.22;;;22.90;;
7737;SDS011;29398;45.328;5.558;2022-12-10T04:59:04;38.05;;;20.73;;
7737;SDS011;29398;45.328;5.558;2022-12-10T05:00:08;31.05;;;21.27;;
7737;SDS011;29398;45.328;5.558;2022-12-10T05:01:10;42.65;;;21.88;;
7737;SDS011;29398;45.328;5.558;2022-12-10T05:02:12;43.25;;;22.67;;
7737;SDS011;29398;45.328;5.558;2022-12-10T05:03:15;35.58;;;23.48;;
7737;SDS011;29398;45.328;5.558;2022-12-10T05:04:17;40.40;;;22.58;;
7737;SDS011;29398;45.328;5.558;2022-12-10T05:05:19;45.78;;;23.95;;
7737;SDS011;29398;45.328;5.558;2022-12-10T05:06:21;44.45;;;22.05;;
7737;SDS011;29398;45.328;5.558;2022-12-10T05:07:22;42.47;;;25.67;;
7737;SDS011;29398;45.328;5.558;2022-12-10T05:08:24;40.10;;;24.80;;
7737;SDS011;29398;45.328;5.558;2022-12-10T05:09:25;52.10;;;24.85;;
7737;SDS011;29398;45.328;5.558;2022-12-10T05:10:27;43.40;;;22.35;;
7737;SDS011;29398;45.328;5.558;2022-12-10T05:11:29;47.92;;;24.17;;
7737;SDS011;29398;45.328;5.558;2022-12-10T05:12:34;46.15;;;23.05;;
7737;SDS011;29398;45.328;5.558;2022-12-10T05:13:35;35.17;;;23.55;;
7737;SDS011;29398;45.328;5.558;2022-12-10T05:14:38;44.92;;;22.55;;
7737;SDS011;29398;45.328;5.558;2022-12-10T05:15:39;39.92;;;25.13;;
7737;SDS011;29398;45.328;5.558;2022-12-10T05:16:41;43.70;;;21.60;;
7737;SDS011;29398;45.328;5.558;2022-12-10T05:17:42;38.63;;;24.13;;
7737;SDS011;29398;45.328;5.558;2022-12-10T05:18:46;46.65;;;23.33;;
7737;SDS011;29398;45.328;5.558;2022-12-10T05:19:47;45.53;;;22.75;;
7737;SDS011;29398;45.328;5.558;2022-12-10T05:20:49;33.97;;;23.38;;
7737;SDS011;29398;45.328;5.558;2022-12-10T05:21:50;41.30;;;22.25;;
7737;SDS011;29398;45.328;5.558;2022-12-10T05:23:10;42.95;;;22.20;;
7737;SDS011;29398;45.328;5.558;2022-12-10T05:24:30;36.55;;;23.23;;
7737;SDS011;29398;45.328;5.558;2022-12-10T05:25:31;41.97;;;21.15;;
7737;SDS011;29398;45.328;5.558;2022-12-10T05:26:52;48.88;;;22.95;;
7737;SDS011;29398;45.328;5.558;2022-12-10T05:27:54;41.00;;;21.60;;
7737;SDS011;29398;45.328;5.558;2022-12-10T05:28:56;40.90;;;21.42;;
7737;SDS011;29398;45.328;5.558;2022-12-10T05:29:58;33.47;;;22.50;;
7737;SDS011;29398;45.328;5.558;2022-12-10T05:31:00;35.78;;;19.80;;
7737;SDS011;29398;45.328;5.558;2022-12-10T05:32:02;35.05;;;22.10;;
7737;SDS011;29398;45.328;5.558;2022-12-10T05:33:04;37.30;;;19.55;;
7737;SDS011;29398;45.328;5.558;2022-12-10T05:34:08;32.10;;;20.92;;
7737;SDS011;29398;45.328;5.558;2022-12-10T05:35:12;35.08;;;20.27;;
7737;SDS011;29398;45.328;5.558;2022-12-10T05:36:13;33.58;;;18.35;;
7737;SDS011;29398;45.328;5.558;2022-12-10T05:37:17;29.13;;;20.30;;
7737;SDS011;29398;45.328;5.558;2022-12-10T05:38:18;30.77;;;21.08;;
7737;SDS011;29398;45.328;5.558;2022-12-10T05:39:21;30.60;;;21.10;;
7737;SDS011;29398;45.328;5.558;2022-12-10T05:40:22;44.28;;;21.48;;
7737;SDS011;29398;45.328;5.558;2022-12-10T05:41:25;45.20;;;22.95;;
7737;SDS011;29398;45.328;5.558;2022-12-10T05:42:27;33.65;;;22.55;;
7737;SDS011;29398;45.328;5.558;2022-12-10T05:43:30;34.15;;;20.63;;
7737;SDS011;29398;45.328;5.558;2022-12-10T05:44:31;39.03;;;20.95;;
7737;SDS011;29398;45.328;5.558;2022-12-10T05:45:33;37.38;;;23.70;;
7737;SDS011;29398;45.328;5.558;2022-12-10T05:46:35;30.73;;;21.52;;
7737;SDS011;29398;45.328;5.558;2022-12-10T05:47:37;39.05;;;21.13;;
7737;SDS011;29398;45.328;5.558;2022-12-10T05:48:38;41.63;;;21.65;;
7737;SDS011;29398;45.328;5.558;2022-12-10T05:49:41;43.83;;;23.95;;
7737;SDS011;29398;45.328;5.558;2022-12-10T05:50:42;40.80;;;22.08;;
7737;SDS011;29398;45.328;5.558;2022-12-10T05:51:45;43.97;;;22.33;;
7737;SDS011;29398;45.328;5.558;2022-12-10T05:52:46;44.67;;;24.08;;
7737;SDS011;29398;45.328;5.558;2022-12-10T05:53:51;33.38;;;23.27;;
7737;SDS011;29398;45.328;5.558;2022-12-10T05:54:52;40.88;;;23.13;;
7737;SDS011;29398;45.328;5.558;2022-12-10T05:55:58;41.22;;;23.10;;
7737;SDS011;29398;45.328;5.558;2022-12-10T05:57:00;40.63;;;22.88;;
7737;SDS011;29398;45.328;5.558;2022-12-10T05:58:02;35.72;;;24.83;;
7737;SDS011;29398;45.328;5.558;2022-12-10T05:59:04;45.28;;;24.08;;
7737;SDS011;29398;45.328;5.558;2022-12-10T06:00:07;44.88;;;24.23;;
7737;SDS011;29398;45.328;5.558;2022-12-10T06:01:13;35.38;;;25.33;;
7737;SDS011;29398;45.328;5.558;2022-12-10T06:02:16;49.30;;;25.85;;
7737;SDS011;29398;45.328;5.558;2022-12-10T06:03:17;47.92;;;25.30;;
7737;SDS011;29398;45.328;5.558;2022-12-10T06:04:19;46.95;;;25.60;;
7737;SDS011;29398;45.328;5.558;2022-12-10T06:05:22;42.03;;;28.23;;
7737;SDS011;29398;45.328;5.558;2022-12-10T06:06:24;36.22;;;26.38;;
7737;SDS011;29398;45.328;5.558;2022-12-10T06:07:26;35.20;;;26.23;;
7737;SDS011;29398;45.328;5.558;2022-12-10T06:08:30;34.25;;;26.50;;
7737;SDS011;29398;45.328;5.558;2022-12-10T06:09:31;44.45;;;25.33;;
7737;SDS011;29398;45.328;5.558;2022-12-10T06:10:33;48.67;;;26.08;;
7737;SDS011;29398;45.328;5.558;2022-12-10T06:11:36;47.38;;;27.35;;
7737;SDS011;29398;45.328;5.558;2022-12-10T06:12:38;29.38;;;20.40;;
7737;SDS011;29398;45.328;5.558;2022-12-10T06:13:39;47.38;;;25.85;;
7737;SDS011;29398;45.328;5.558;2022-12-10T06:14:41;46.72;;;26.45;;
7737;SDS011;29398;45.328;5.558;2022-12-10T06:15:43;47.70;;;25.55;;
7737;SDS011;29398;45.328;5.558;2022-12-10T06:16:44;40.92;;;29.58;;
7737;SDS011;29398;45.328;5.558;2022-12-10T06:17:46;42.97;;;29.40;;
7737;SDS011;29398;45.328;5.558;2022-12-10T06:18:47;41.67;;;27.33;;
7737;SDS011;29398;45.328;5.558;2022-12-10T06:19:50;47.08;;;25.85;;
7737;SDS011;29398;45.328;5.558;2022-12-10T06:20:52;53.15;;;27.70;;
7737;SDS011;29398;45.328;5.558;2022-12-10T06:21:54;48.75;;;28.45;;